Time;durP1;ratioP1;P1;durP2;ratioP2;P2;SDS_P1;SDS_P2;PMS_P1;PMS_P2;Temp;Humidity;BMP_temperature;BMP_pressure;BME280_temperature;BME280_humidity;BME280_pressure;Samples;Min_cycle;Max_cycle;Signal;HPM_P1;HPM_P2
2023/05/22 00:01:01;;;;;;;;;;;;;;;24.04;nan;101943.47;5046572;28;19923;-82
2023/05/22 00:03:27;;;;;;;;;;;;;;;23.99;nan;101940.88;5045952;28;19990;-82
2023/05/22 00:05:57;;;;;;;;;;;;;;;23.94;nan;101935.50;5046294;28;20324;-82
2023/05/22 00:08:23;;;;;;;;;;;;;;;23.91;nan;101933.41;5043848;28;19927;-82
2023/05/22 00:10:48;;;;;;;;;;;;;;;23.87;nan;101937.84;5048431;28;20138;-82
2023/05/22 00:13:14;;;;;;;;;;;;;;;23.82;nan;101938.78;5045565;28;20111;-82
2023/05/22 00:15:39;;;;;;;;;;;;;;;23.76;nan;101932.63;5045982;28;20016;-82
2023/05/22 00:18:05;;;;;;;;;;;;;;;23.73;nan;101935.19;5044780;28;20420;-82
2023/05/22 00:20:30;;;;;;;;;;;;;;;23.68;nan;101927.06;5043723;28;19927;-81
2023/05/22 00:22:56;;;;;;;;;;;;;;;23.65;nan;101928.50;5045534;28;19929;-82
2023/05/22 00:25:22;;;;;;;;;;;;;;;23.61;nan;101934.88;5045690;28;19929;-82
2023/05/22 00:27:47;;;;;;;;;;;;;;;23.58;nan;101932.78;5044929;28;20027;-82
2023/05/22 00:30:13;;;;;;;;;;;;;;;23.55;nan;101928.69;5044166;28;19920;-82
2023/05/22 00:32:38;;;;;;;;;;;;;;;23.51;nan;101924.94;5045236;28;20160;-82
2023/05/22 00:35:04;;;;;;;;;;;;;;;23.47;nan;101930.22;5034012;28;19925;-82
2023/05/22 00:37:29;;;;;;;;;;;;;;;23.44;nan;101928.09;5036871;28;20380;-82
2023/05/22 00:39:54;;;;;;;;;;;;;;;23.40;nan;101929.84;5029209;28;19984;-82
2023/05/22 00:42:20;;;;;;;;;;;;;;;23.36;nan;101928.03;5027897;28;20346;-82
2023/05/22 00:44:47;;;;;;;;;;;;;;;23.33;nan;101931.34;5034430;28;19916;-82
2023/05/22 00:47:12;;;;;;;;;;;;;;;23.28;nan;101926.00;5030701;28;19927;-82
2023/05/22 00:49:37;;;;;;;;;;;;;;;23.24;nan;101925.78;5040046;28;21333;-82
2023/05/22 00:52:03;;;;;;;;;;;;;;;23.20;nan;101931.06;5043063;28;19916;-82
2023/05/22 00:54:30;;;;;;;;;;;;;;;23.18;nan;101937.97;5040492;28;19943;-82
2023/05/22 00:56:55;;;;;;;;;;;;;;;23.17;nan;101937.16;5040195;28;19932;-82
2023/05/22 00:59:20;;;;;;;;;;;;;;;23.19;nan;101934.09;5037625;28;19921;-82
2023/05/22 01:01:46;;;;;;;;;;;;;;;23.18;nan;101936.03;5044743;28;19947;-81
2023/05/22 01:04:12;;;;;;;;;;;;;;;23.16;nan;101941.00;5042473;28;19921;-82
2023/05/22 01:06:38;;;;;;;;;;;;;;;23.16;nan;101934.69;5038071;28;20391;-82
2023/05/22 01:09:03;;;;;;;;;;;;;;;23.13;nan;101929.84;5041557;28;19921;-82
2023/05/22 01:11:44;;;;;;;;;;;;;;;23.09;nan;101931.56;5044373;28;20284;-82
2023/05/22 01:14:15;;;;;;;;;;;;;;;23.06;nan;101930.25;5043328;28;19924;-82
2023/05/22 01:16:59;;;;;;;;;;;;;;;23.06;nan;101930.25;5041498;28;19979;-82
2023/05/22 01:19:30;;;;;;;;;;;;;;;23.06;nan;101929.44;5043317;28;20431;-82
2023/05/22 01:22:15;;;;;;;;;;;;;;;23.02;nan;101937.44;5042040;28;19924;-82
2023/05/22 01:24:51;;;;;;;;;;;;;;;22.97;nan;101937.53;5045621;28;19917;-82
2023/05/22 01:27:17;;;;;;;;;;;;;;;22.95;nan;101938.94;5033697;28;19921;-82
2023/05/22 01:29:49;;;;;;;;;;;;;;;22.91;nan;101946.94;5043999;28;19924;-82
2023/05/22 01:32:20;;;;;;;;;;;;;;;22.87;nan;101943.19;5054920;28;19944;-82
2023/05/22 01:34:46;;;;;;;;;;;;;;;22.85;nan;101943.50;5046641;28;19932;-82
2023/05/22 01:37:13;;;;;;;;;;;;;;;22.83;nan;101942.19;5041064;28;20466;-82
2023/05/22 01:39:39;;;;;;;;;;;;;;;22.82;nan;101940.56;5046371;28;19916;-82
2023/05/22 01:42:04;;;;;;;;;;;;;;;22.76;nan;101937.06;5041982;28;20365;-82
2023/05/22 01:44:30;;;;;;;;;;;;;;;22.74;nan;101938.50;5042523;28;19928;-82
2023/05/22 01:46:59;;;;;;;;;;;;;;;22.72;nan;101938.78;5043054;28;19917;-82
2023/05/22 01:49:26;;;;;;;;;;;;;;;22.71;nan;101939.91;5042781;28;20280;-82
2023/05/22 01:51:52;;;;;;;;;;;;;;;22.70;nan;101938.28;5041735;28;20141;-81
2023/05/22 01:54:23;;;;;;;;;;;;;;;22.72;nan;101940.72;5045511;28;19916;-82
2023/05/22 01:56:55;;;;;;;;;;;;;;;22.71;nan;101934.44;5039473;28;20526;-82
2023/05/22 01:59:29;;;;;;;;;;;;;;;22.72;nan;101932.53;5043543;28;20098;-81
2023/05/22 02:01:57;;;;;;;;;;;;;;;22.71;nan;101934.44;5040516;28;19920;-81
2023/05/22 02:04:23;;;;;;;;;;;;;;;22.67;nan;101929.88;5043702;28;19917;-82
2023/05/22 02:06:51;;;;;;;;;;;;;;;22.64;nan;101927.75;5043294;28;19943;-82
2023/05/22 02:09:17;;;;;;;;;;;;;;;22.60;nan;101922.88;5041583;28;19920;-82
2023/05/22 02:11:42;;;;;;;;;;;;;;;22.58;nan;101919.63;5042868;28;20406;-81
2023/05/22 02:14:10;;;;;;;;;;;;;;;22.55;nan;101919.44;5042095;28;19999;-82
2023/05/22 02:16:36;;;;;;;;;;;;;;;22.52;nan;101922.78;5043542;28;19916;-82
2023/05/22 02:19:05;;;;;;;;;;;;;;;22.45;nan;101914.97;5043845;28;19924;-81
2023/05/22 02:21:34;;;;;;;;;;;;;;;22.39;nan;101910.69;5045643;28;19924;-82
2023/05/22 02:23:59;;;;;;;;;;;;;;;22.36;nan;101905.84;5042877;28;19963;-81
2023/05/22 02:26:25;;;;;;;;;;;;;;;22.33;nan;101911.91;5043866;28;19956;-82
2023/05/22 02:28:50;;;;;;;;;;;;;;;22.30;nan;101909.78;5042996;28;20444;-81
2023/05/22 02:31:17;;;;;;;;;;;;;;;22.25;nan;101909.84;5044051;28;20493;-81
2023/05/22 02:33:42;;;;;;;;;;;;;;;22.20;nan;101908.00;5044900;28;19916;-82
2023/05/22 02:36:09;;;;;;;;;;;;;;;22.20;nan;101901.75;5044167;28;19963;-81
2023/05/22 02:38:35;;;;;;;;;;;;;;;22.21;nan;101906.09;5044863;28;19943;-82
2023/05/22 02:41:00;;;;;;;;;;;;;;;22.22;nan;101913.16;5040650;28;20411;-82
2023/05/22 02:43:26;;;;;;;;;;;;;;;22.23;nan;101899.22;5043693;28;19925;-82
2023/05/22 02:45:52;;;;;;;;;;;;;;;22.21;nan;101900.63;5041452;28;20308;-82
2023/05/22 02:48:17;;;;;;;;;;;;;;;22.18;nan;101902.03;5039295;28;19928;-82
2023/05/22 02:50:43;;;;;;;;;;;;;;;22.15;nan;101905.38;5042607;28;20427;-82
2023/05/22 02:53:08;;;;;;;;;;;;;;;22.12;nan;101905.16;5040410;28;20350;-82
2023/05/22 02:55:34;;;;;;;;;;;;;;;22.10;nan;101899.19;5040985;28;20384;-82
2023/05/22 02:57:59;;;;;;;;;;;;;;;22.08;nan;101899.47;5036676;28;19924;-82
2023/05/22 03:00:24;;;;;;;;;;;;;;;22.05;nan;101899.25;5042684;28;20016;-82
2023/05/22 03:02:50;;;;;;;;;;;;;;;22.03;nan;101902.25;5040856;28;20495;-82
2023/05/22 03:05:16;;;;;;;;;;;;;;;21.97;nan;101890.63;5038357;28;19979;-82
2023/05/22 03:07:41;;;;;;;;;;;;;;;21.94;nan;101896.66;5042706;28;19920;-82
2023/05/22 03:10:07;;;;;;;;;;;;;;;21.92;nan;101898.09;5043492;28;19923;-81
2023/05/22 03:12:32;;;;;;;;;;;;;;;21.90;nan;101903.84;5036337;28;19917;-82
2023/05/22 03:14:58;;;;;;;;;;;;;;;21.87;nan;101901.66;5044728;28;19924;-82
2023/05/22 03:17:23;;;;;;;;;;;;;;;21.81;nan;101899.34;5049177;28;20038;-82
2023/05/22 03:19:48;;;;;;;;;;;;;;;21.75;nan;101904.06;5044274;28;19948;-82
2023/05/22 03:22:14;;;;;;;;;;;;;;;21.72;nan;101904.63;5044384;28;20285;-82
2023/05/22 03:24:39;;;;;;;;;;;;;;;21.69;nan;101897.84;5043939;28;19917;-82
2023/05/22 03:27:04;;;;;;;;;;;;;;;21.72;nan;101899.16;5042475;28;19924;-82
2023/05/22 03:29:30;;;;;;;;;;;;;;;21.75;nan;101903.25;5043313;28;19971;-82
2023/05/22 03:31:55;;;;;;;;;;;;;;;21.74;nan;101894.25;5035502;28;20357;-81
2023/05/22 03:34:21;;;;;;;;;;;;;;;21.73;nan;101892.63;5046134;28;19920;-82
2023/05/22 03:36:47;;;;;;;;;;;;;;;21.73;nan;101892.63;5044510;28;19921;-82
2023/05/22 03:39:12;;;;;;;;;;;;;;;21.76;nan;101896.69;5046718;28;20440;-82
2023/05/22 03:41:37;;;;;;;;;;;;;;;21.76;nan;101888.50;5047325;28;19940;-82
2023/05/22 03:44:03;;;;;;;;;;;;;;;21.76;nan;101892.03;5046115;28;20395;-82
2023/05/22 03:46:28;;;;;;;;;;;;;;;21.80;nan;101892.25;5046875;28;20264;-82
2023/05/22 03:48:53;;;;;;;;;;;;;;;21.83;nan;101891.66;5047535;28;19962;-82
2023/05/22 03:51:19;;;;;;;;;;;;;;;21.85;nan;101882.06;5046609;28;19988;-82
2023/05/22 03:53:44;;;;;;;;;;;;;;;21.87;nan;101892.69;5045744;28;20411;-82
2023/05/22 03:56:09;;;;;;;;;;;;;;;21.90;nan;101887.47;5045346;28;19924;-82
2023/05/22 03:58:35;;;;;;;;;;;;;;;21.95;nan;101889.28;5046692;28;20148;-82
2023/05/22 04:01:00;;;;;;;;;;;;;;;22.00;nan;101886.47;5047439;28;20003;-82
2023/05/22 04:03:26;;;;;;;;;;;;;;;22.05;nan;101883.69;5047072;28;19925;-82
2023/05/22 04:05:51;;;;;;;;;;;;;;;22.09;nan;101879.28;5048019;28;19921;-82
2023/05/22 04:08:17;;;;;;;;;;;;;;;22.14;nan;101878.38;5047000;28;20387;-82
2023/05/22 04:10:45;;;;;;;;;;;;;;;22.19;nan;101887.28;5042645;28;19924;-82
2023/05/22 04:13:10;;;;;;;;;;;;;;;22.24;nan;101875.47;5044373;28;19936;-82
2023/05/22 04:15:36;;;;;;;;;;;;;;;22.27;nan;101880.34;5041528;28;19925;-82
2023/05/22 04:18:01;;;;;;;;;;;;;;;22.32;nan;101882.97;5045449;28;19962;-81
2023/05/22 04:20:26;;;;;;;;;;;;;;;22.36;nan;101875.81;5043298;28;19927;-82
2023/05/22 04:22:53;;;;;;;;;;;;;;;22.40;nan;101876.81;5043353;28;19928;-82
2023/05/22 04:25:18;;;;;;;;;;;;;;;22.47;nan;101879.19;5041512;28;19924;-82
2023/05/22 04:27:44;;;;;;;;;;;;;;;22.52;nan;101871.69;5042987;28;20443;-82
2023/05/22 04:30:09;;;;;;;;;;;;;;;22.57;nan;101874.31;5039365;28;20027;-82
2023/05/22 04:32:35;;;;;;;;;;;;;;;22.64;nan;101876.66;5046870;28;20000;-82
2023/05/22 04:35:01;;;;;;;;;;;;;;;22.71;nan;101873.53;5044601;28;19916;-82
2023/05/22 04:37:27;;;;;;;;;;;;;;;22.78;nan;101876.66;5045774;28;20475;-82
2023/05/22 04:39:56;;;;;;;;;;;;;;;22.84;nan;101884.50;5045967;28;20441;-82
2023/05/22 04:42:24;;;;;;;;;;;;;;;22.90;nan;101880.53;5043795;28;19924;-82
2023/05/22 04:44:51;;;;;;;;;;;;;;;22.95;nan;101878.81;5044173;28;19921;-82
2023/05/22 04:47:17;;;;;;;;;;;;;;;23.01;nan;101872.16;5045045;28;20362;-83
2023/05/22 04:49:44;;;;;;;;;;;;;;;23.07;nan;101882.66;5043893;28;19971;-82
2023/05/22 04:52:10;;;;;;;;;;;;;;;23.13;nan;101870.50;5044790;28;20342;-82
2023/05/22 04:54:35;;;;;;;;;;;;;;;23.19;nan;101879.44;5045946;28;19916;-81
2023/05/22 04:57:04;;;;;;;;;;;;;;;23.26;nan;101884.47;5055191;28;19975;-82
2023/05/22 04:59:30;;;;;;;;;;;;;;;23.29;nan;101884.66;5042877;28;19999;-82
2023/05/22 05:01:55;;;;;;;;;;;;;;;23.33;nan;101880.19;5041245;28;19986;-82
2023/05/22 05:04:21;;;;;;;;;;;;;;;23.36;nan;101889.75;5043336;28;19925;-82
2023/05/22 05:06:46;;;;;;;;;;;;;;;23.40;nan;101890.75;5043722;28;20140;-82
2023/05/22 05:09:11;;;;;;;;;;;;;;;23.44;nan;101881.59;5044736;28;19982;-82
2023/05/22 05:11:37;;;;;;;;;;;;;;;23.50;nan;101887.75;5043049;28;20295;-82
2023/05/22 05:14:02;;;;;;;;;;;;;;;23.54;nan;101887.97;5062017;28;20292;-82
2023/05/22 05:16:27;;;;;;;;;;;;;;;23.60;nan;101884.03;5043120;28;20338;-82
2023/05/22 05:18:54;;;;;;;;;;;;;;;23.63;nan;101884.22;5042714;28;20372;-82
2023/05/22 05:21:20;;;;;;;;;;;;;;;23.72;nan;101881.56;5046061;28;20424;-82
2023/05/22 05:23:45;;;;;;;;;;;;;;;23.78;nan;101891.28;5045495;28;19921;-82
2023/05/22 05:26:11;;;;;;;;;;;;;;;23.88;nan;101885.56;5041939;28;19925;-82
2023/05/22 05:28:36;;;;;;;;;;;;;;;23.98;nan;101892.72;5046478;28;19917;-82
2023/05/22 05:31:01;;;;;;;;;;;;;;;24.10;nan;101887.50;5041457;28;19920;-82
2023/05/22 05:33:27;;;;;;;;;;;;;;;24.23;nan;101886.59;5044316;28;19955;-82
2023/05/22 05:35:52;;;;;;;;;;;;;;;24.39;nan;101889.78;5045719;28;19916;-82
2023/05/22 05:38:18;;;;;;;;;;;;;;;24.54;nan;101896.78;5045870;28;20288;-82
2023/05/22 05:40:43;;;;;;;;;;;;;;;24.66;nan;101889.63;5047440;28;19952;-82
2023/05/22 05:43:09;;;;;;;;;;;;;;;24.78;nan;101894.50;5043906;28;20159;-82
2023/05/22 05:45:34;;;;;;;;;;;;;;;24.88;nan;101885.97;5046042;28;20392;-82
2023/05/22 05:48:00;;;;;;;;;;;;;;;25.00;nan;101890.91;5043686;28;19962;-82
2023/05/22 05:50:25;;;;;;;;;;;;;;;25.11;nan;101883.16;5045327;28;19924;-82
2023/05/22 05:52:50;;;;;;;;;;;;;;;25.21;nan;101882.88;5045861;28;19925;-82
2023/05/22 05:55:16;;;;;;;;;;;;;;;25.30;nan;101886.44;5045090;28;20299;-83
2023/05/22 05:57:41;;;;;;;;;;;;;;;25.40;nan;101885.34;5046598;28;20530;-82
2023/05/22 06:00:09;;;;;;;;;;;;;;;25.50;nan;101879.56;5046417;28;19916;-82
2023/05/22 06:02:34;;;;;;;;;;;;;;;25.59;nan;101877.59;5043126;28;19943;-82
2023/05/22 06:05:00;;;;;;;;;;;;;;;25.69;nan;101884.75;5041242;28;19917;-82
2023/05/22 06:07:27;;;;;;;;;;;;;;;25.77;nan;101881.19;5038789;28;20392;-82
2023/05/22 06:09:52;;;;;;;;;;;;;;;25.86;nan;101882.00;5042440;28;20389;-82
2023/05/22 06:12:18;;;;;;;;;;;;;;;25.95;nan;101880.03;5043485;28;19917;-82
2023/05/22 06:14:43;;;;;;;;;;;;;;;26.02;nan;101872.09;5038810;28;19921;-82
2023/05/22 06:17:08;;;;;;;;;;;;;;;26.06;nan;101881.34;5044512;28;19925;-82
2023/05/22 06:19:34;;;;;;;;;;;;;;;26.10;nan;101887.78;5043169;28;19916;-82
2023/05/22 06:21:59;;;;;;;;;;;;;;;26.17;nan;101890.84;5041955;28;19925;-82
2023/05/22 06:24:25;;;;;;;;;;;;;;;26.25;nan;101891.97;5044042;28;20432;-82
2023/05/22 06:26:50;;;;;;;;;;;;;;;26.32;nan;101878.53;5043487;28;19924;-82
2023/05/22 06:29:16;;;;;;;;;;;;;;;26.39;nan;101880.78;5044782;28;19975;-82
2023/05/22 06:31:41;;;;;;;;;;;;;;;26.51;nan;101878.16;5043509;28;19970;-82
2023/05/22 06:34:07;;;;;;;;;;;;;;;26.63;nan;101877.50;5042154;28;20376;-82
2023/05/22 06:36:33;;;;;;;;;;;;;;;26.77;nan;101878.88;5041880;28;20284;-82
2023/05/22 06:38:59;;;;;;;;;;;;;;;26.97;nan;101877.34;5042391;28;20153;-82
2023/05/22 06:41:25;;;;;;;;;;;;;;;27.15;nan;101871.75;5042543;28;20023;-82
2023/05/22 06:43:50;;;;;;;;;;;;;;;27.34;nan;101870.16;5043842;28;20369;-82
2023/05/22 06:46:15;;;;;;;;;;;;;;;27.51;nan;101873.94;5044374;28;19927;-82
2023/05/22 06:48:41;;;;;;;;;;;;;;;27.63;nan;101874.00;5045773;28;20288;-82
2023/05/22 06:51:08;;;;;;;;;;;;;;;27.81;nan;101874.66;5045244;28;19917;-82
2023/05/22 06:53:34;;;;;;;;;;;;;;;27.92;nan;101873.13;5044123;28;19995;-82
2023/05/22 06:55:59;;;;;;;;;;;;;;;28.04;nan;101869.59;5041197;28;20004;-82
2023/05/22 06:58:25;;;;;;;;;;;;;;;28.19;nan;101869.78;5043571;28;20389;-82
2023/05/22 07:00:50;;;;;;;;;;;;;;;28.35;nan;101874.63;5046856;28;20375;-82
2023/05/22 07:03:16;;;;;;;;;;;;;;;28.50;nan;101869.25;5043087;28;19929;-82
2023/05/22 07:05:41;;;;;;;;;;;;;;;28.62;nan;101862.97;5038419;28;20411;-82
2023/05/22 07:08:07;;;;;;;;;;;;;;;28.74;nan;101870.44;5044460;28;19945;-82
2023/05/22 07:10:32;;;;;;;;;;;;;;;28.83;nan;101860.09;5044261;28;19966;-82
2023/05/22 07:12:58;;;;;;;;;;;;;;;28.95;nan;101857.38;5038671;28;19924;-82
2023/05/22 07:15:23;;;;;;;;;;;;;;;29.15;nan;101861.94;5044206;28;19927;-82
2023/05/22 07:17:48;;;;;;;;;;;;;;;29.27;nan;101865.84;5043156;28;19950;-82
2023/05/22 07:20:14;;;;;;;;;;;;;;;29.39;nan;101863.03;5043053;28;19921;-82
2023/05/22 07:22:40;;;;;;;;;;;;;;;29.53;nan;101851.63;5043750;28;19950;-82
2023/05/22 07:25:05;;;;;;;;;;;;;;;29.66;nan;101856.75;5037374;28;19925;-82
2023/05/22 07:27:31;;;;;;;;;;;;;;;29.81;nan;101852.44;5043231;28;19921;-82
2023/05/22 07:29:56;;;;;;;;;;;;;;;29.96;nan;101859.16;5044517;28;19932;-82
2023/05/22 07:32:21;;;;;;;;;;;;;;;30.09;nan;101857.97;5059574;28;19917;-82
2023/05/22 07:34:47;;;;;;;;;;;;;;;30.25;nan;101856.03;5039936;28;19925;-82
2023/05/22 07:37:15;;;;;;;;;;;;;;;30.33;nan;101862.53;5044885;28;19920;-83
2023/05/22 07:39:41;;;;;;;;;;;;;;;30.40;nan;101856.41;5045558;28;19967;-82
2023/05/22 07:42:06;;;;;;;;;;;;;;;30.50;nan;101855.84;5045126;28;20333;-83
2023/05/22 07:44:33;;;;;;;;;;;;;;;30.63;nan;101860.16;5044246;28;19928;-82
2023/05/22 07:46:58;;;;;;;;;;;;;;;30.61;nan;101856.91;5038554;28;19929;-82
2023/05/22 07:49:23;;;;;;;;;;;;;;;30.72;nan;101846.16;5044554;28;19923;-82
2023/05/22 07:51:49;;;;;;;;;;;;;;;30.86;nan;101852.81;5044017;28;19959;-83
2023/05/22 07:54:14;;;;;;;;;;;;;;;30.97;nan;101842.78;5040057;28;19929;-83
2023/05/22 07:56:40;;;;;;;;;;;;;;;31.08;nan;101843.03;5039630;28;19932;-82
2023/05/22 07:59:06;;;;;;;;;;;;;;;31.20;nan;101851.22;5038125;28;19928;-83
2023/05/22 08:01:31;;;;;;;;;;;;;;;31.32;nan;101846.75;5040311;28;19921;-83
2023/05/22 08:03:57;;;;;;;;;;;;;;;31.41;nan;101839.00;5045340;28;19927;-83
2023/05/22 08:06:22;;;;;;;;;;;;;;;31.52;nan;101843.59;5048138;28;19971;-83
2023/05/22 08:08:48;;;;;;;;;;;;;;;31.64;nan;101837.13;5048434;28;19921;-83
2023/05/22 08:11:13;;;;;;;;;;;;;;;31.82;nan;101843.03;5047651;28;19978;-82
2023/05/22 08:13:39;;;;;;;;;;;;;;;31.92;nan;101836.09;5048167;28;19963;-83
2023/05/22 08:16:04;;;;;;;;;;;;;;;31.94;nan;101840.09;5048259;28;20015;-82
2023/05/22 08:18:30;;;;;;;;;;;;;;;31.96;nan;101835.00;5047018;28;20055;-83
2023/05/22 08:20:55;;;;;;;;;;;;;;;31.99;nan;101841.78;5043853;28;20032;-83
2023/05/22 08:23:20;;;;;;;;;;;;;;;32.08;nan;101845.91;5048174;28;19921;-83
2023/05/22 08:25:46;;;;;;;;;;;;;;;32.24;nan;101834.69;5046286;28;19916;-82
2023/05/22 08:28:11;;;;;;;;;;;;;;;32.32;nan;101839.25;5048909;28;19921;-83
2023/05/22 08:30:36;;;;;;;;;;;;;;;32.41;nan;101838.97;5048131;28;20214;-83
2023/05/22 08:33:02;;;;;;;;;;;;;;;32.51;nan;101849.44;5047064;28;20424;-83
2023/05/22 08:35:27;;;;;;;;;;;;;;;32.59;nan;101850.34;5047668;28;19924;-83
2023/05/22 08:37:52;;;;;;;;;;;;;;;32.64;nan;101850.03;5045860;28;19963;-82
2023/05/22 08:40:19;;;;;;;;;;;;;;;32.66;nan;101842.13;5048818;28;19948;-81
2023/05/22 08:42:44;;;;;;;;;;;;;;;32.67;nan;101835.41;5044100;28;20015;-83
2023/05/22 08:45:10;;;;;;;;;;;;;;;32.67;nan;101832.63;5044538;28;20023;-84
2023/05/22 08:47:36;;;;;;;;;;;;;;;32.64;nan;101836.97;5047754;28;19916;-84
2023/05/22 08:50:02;;;;;;;;;;;;;;;32.75;nan;101840.72;5046018;28;20456;-81
2023/05/22 08:52:43;;;;;;;;;;;;;;;32.83;nan;101841.63;5047876;28;19951;-82
2023/05/22 08:55:09;;;;;;;;;;;;;;;32.84;nan;101842.44;5044839;28;19921;-85
2023/05/22 08:57:35;;;;;;;;;;;;;;;32.85;nan;101844.03;5045051;28;19921;-82
2023/05/22 09:00:00;;;;;;;;;;;;;;;32.84;nan;101836.88;5045161;28;20419;-81
2023/05/22 09:02:25;;;;;;;;;;;;;;;32.85;nan;101838.47;5046443;28;19928;-82
2023/05/22 09:04:51;;;;;;;;;;;;;;;32.91;nan;101823.13;5045580;28;19925;-84
2023/05/22 09:07:17;;;;;;;;;;;;;;;32.88;nan;101823.88;5046177;28;19964;-83
2023/05/22 09:09:42;;;;;;;;;;;;;;;32.97;nan;101818.84;5049052;28;19924;-83
2023/05/22 09:12:09;;;;;;;;;;;;;;;33.11;nan;101819.03;5046632;28;20015;-83
2023/05/22 09:14:38;;;;;;;;;;;;;;;33.20;nan;101811.22;5044462;28;19917;-83
2023/05/22 09:17:04;;;;;;;;;;;;;;;33.18;nan;101818.31;5044533;28;20222;-84
2023/05/22 09:19:29;;;;;;;;;;;;;;;33.12;nan;101815.09;5046567;28;19995;-83
2023/05/22 09:22:00;;;;;;;;;;;;;;;33.10;nan;101811.88;5046603;28;20365;-82
2023/05/22 09:24:26;;;;;;;;;;;;;;;33.21;nan;101812.81;5045633;28;19921;-82
2023/05/22 09:26:51;;;;;;;;;;;;;;;33.32;nan;101808.22;5043720;28;20392;-80
2023/05/22 09:29:18;;;;;;;;;;;;;;;33.34;nan;101805.06;5045324;28;20395;-82
2023/05/22 09:31:43;;;;;;;;;;;;;;;33.38;nan;101799.53;5046879;28;19917;-83
2023/05/22 09:34:10;;;;;;;;;;;;;;;33.52;nan;101783.03;5047561;28;19923;-83
2023/05/22 09:36:35;;;;;;;;;;;;;;;33.56;nan;101784.69;5047666;28;19920;-80
2023/05/22 09:39:01;;;;;;;;;;;;;;;33.50;nan;101785.41;5045931;28;19917;-80
2023/05/22 09:41:29;;;;;;;;;;;;;;;33.35;nan;101790.78;5041876;28;19928;-83
2023/05/22 09:43:54;;;;;;;;;;;;;;;33.30;nan;101782.78;5046189;28;19924;-83
2023/05/22 09:46:20;;;;;;;;;;;;;;;33.41;nan;101782.16;5045946;28;20395;-80
2023/05/22 09:48:50;;;;;;;;;;;;;;;33.59;nan;101783.16;5046330;28;19970;-83
2023/05/22 09:51:16;;;;;;;;;;;;;;;33.77;nan;101788.88;5041823;28;20519;-83
2023/05/22 09:53:42;;;;;;;;;;;;;;;33.92;nan;101785.88;5047383;28;19948;-83
2023/05/22 09:56:11;;;;;;;;;;;;;;;33.99;nan;101793.50;5042061;28;19924;-83
2023/05/22 09:58:40;;;;;;;;;;;;;;;34.10;nan;101779.66;5045496;28;20369;-83
2023/05/22 10:01:09;;;;;;;;;;;;;;;34.18;nan;101778.56;5046848;28;19925;-83
2023/05/22 10:03:34;;;;;;;;;;;;;;;34.29;nan;101771.06;5045712;28;20002;-83
2023/05/22 10:06:01;;;;;;;;;;;;;;;34.47;nan;101772.06;5045868;28;19956;-83
2023/05/22 10:08:35;;;;;;;;;;;;;;;34.63;nan;101765.38;5041147;28;19916;-83
2023/05/22 10:11:02;;;;;;;;;;;;;;;34.65;nan;101760.22;5043192;28;20194;-83
2023/05/22 10:13:27;;;;;;;;;;;;;;;34.66;nan;101764.63;5045106;28;19917;-83
2023/05/22 10:15:53;;;;;;;;;;;;;;;34.67;nan;101760.66;5044624;28;20491;-82
2023/05/22 10:18:19;;;;;;;;;;;;;;;34.70;nan;101755.09;5046295;28;20018;-82
2023/05/22 10:20:47;;;;;;;;;;;;;;;34.82;nan;101749.16;5041772;28;21410;-83
2023/05/22 10:23:14;;;;;;;;;;;;;;;34.94;nan;101750.84;5046413;28;19921;-84
2023/05/22 10:25:39;;;;;;;;;;;;;;;34.97;nan;101744.50;5044206;28;19917;-84
2023/05/22 10:28:06;;;;;;;;;;;;;;;35.03;nan;101745.75;5045566;28;19920;-83
2023/05/22 10:30:41;;;;;;;;;;;;;;;35.19;nan;101736.22;5042157;28;19921;-83
2023/05/22 10:33:16;;;;;;;;;;;;;;;35.39;nan;101729.16;5044635;28;19924;-83
2023/05/22 10:36:02;;;;;;;;;;;;;;;35.56;nan;101730.41;5046174;28;19983;-84
2023/05/22 10:38:43;;;;;;;;;;;;;;;35.70;nan;101725.59;5044630;28;19927;-83
2023/05/22 10:41:09;;;;;;;;;;;;;;;35.79;nan;101732.78;5043678;28;19924;-84
2023/05/22 10:43:37;;;;;;;;;;;;;;;35.72;nan;101728.00;5045061;28;19947;-83
2023/05/22 10:46:03;;;;;;;;;;;;;;;35.69;nan;101724.00;5044923;28;19924;-84
2023/05/22 10:48:29;;;;;;;;;;;;;;;35.73;nan;101727.63;5047019;28;20144;-84
2023/05/22 10:50:55;;;;;;;;;;;;;;;35.83;nan;101717.66;5045076;28;19974;-83
2023/05/22 10:53:24;;;;;;;;;;;;;;;35.93;nan;101719.69;5043106;28;20346;-83
2023/05/22 10:55:51;;;;;;;;;;;;;;;36.07;nan;101713.28;5042914;28;20442;-83
2023/05/22 10:58:17;;;;;;;;;;;;;;;36.07;nan;101721.66;5038783;28;19925;-83
2023/05/22 11:00:43;;;;;;;;;;;;;;;36.10;nan;101708.91;5044566;28;19921;-83
2023/05/22 11:03:08;;;;;;;;;;;;;;;36.17;nan;101709.69;5040899;28;19939;-83
2023/05/22 11:05:35;;;;;;;;;;;;;;;36.12;nan;101712.91;5041571;28;19920;-83
2023/05/22 11:08:10;;;;;;;;;;;;;;;35.93;nan;101702.16;5043456;28;19921;-83
2023/05/22 11:10:55;;;;;;;;;;;;;;;35.92;nan;101697.78;5039354;28;20182;-83
2023/05/22 11:13:20;;;;;;;;;;;;;;;36.08;nan;101700.94;5042359;28;19916;-83
2023/05/22 11:15:46;;;;;;;;;;;;;;;36.28;nan;101704.09;5044021;28;19920;-83
2023/05/22 11:18:13;;;;;;;;;;;;;;;36.51;nan;101698.09;5044918;28;19925;-83
2023/05/22 11:20:39;;;;;;;;;;;;;;;36.58;nan;101703.63;5041033;28;19925;-83
2023/05/22 11:23:05;;;;;;;;;;;;;;;36.65;nan;101694.47;5038004;28;20350;-85
2023/05/22 11:25:35;;;;;;;;;;;;;;;36.66;nan;101691.25;5043655;28;19971;-83
2023/05/22 11:28:04;;;;;;;;;;;;;;;36.77;nan;101672.44;5041963;28;20308;-84
2023/05/22 11:30:30;;;;;;;;;;;;;;;36.85;nan;101681.63;5037508;28;20008;-85
2023/05/22 11:32:59;;;;;;;;;;;;;;;36.75;nan;101676.84;5043185;28;20019;-83
2023/05/22 11:35:24;;;;;;;;;;;;;;;36.73;nan;101688.44;5045235;28;20009;-84
2023/05/22 11:37:50;;;;;;;;;;;;;;;36.76;nan;101682.03;5045182;28;19971;-82
2023/05/22 11:40:20;;;;;;;;;;;;;;;36.90;nan;101678.41;5041871;28;19921;-82
2023/05/22 11:42:46;;;;;;;;;;;;;;;37.02;nan;101672.38;5047376;28;19921;-82
2023/05/22 11:45:11;;;;;;;;;;;;;;;37.11;nan;101671.91;5046230;28;20191;-82
2023/05/22 11:47:37;;;;;;;;;;;;;;;37.10;nan;101671.09;5048145;28;19921;-84
2023/05/22 11:50:05;;;;;;;;;;;;;;;37.19;nan;101673.47;5046629;28;19963;-83
2023/05/22 11:52:31;;;;;;;;;;;;;;;37.22;nan;101655.88;5041103;28;19928;-83
2023/05/22 11:54:57;;;;;;;;;;;;;;;37.23;nan;101663.06;5043601;28;19928;-83
2023/05/22 11:57:22;;;;;;;;;;;;;;;37.21;nan;101659.88;5046347;28;19920;-83
2023/05/22 11:59:48;;;;;;;;;;;;;;;37.06;nan;101652.78;5043824;28;20444;-83
2023/05/22 12:02:14;;;;;;;;;;;;;;;36.96;nan;101651.63;5044658;28;21753;-82
2023/05/22 12:04:40;;;;;;;;;;;;;;;37.04;nan;101660.78;5046037;28;20300;-84
2023/05/22 12:07:06;;;;;;;;;;;;;;;37.16;nan;101652.69;5041495;28;20341;-84
2023/05/22 12:09:31;;;;;;;;;;;;;;;37.20;nan;101641.53;5042834;28;20007;-84
2023/05/22 12:11:56;;;;;;;;;;;;;;;37.30;nan;101637.06;5044982;28;20007;-84
2023/05/22 12:14:26;;;;;;;;;;;;;;;37.38;nan;101633.84;5043273;28;19948;-83
2023/05/22 12:16:52;;;;;;;;;;;;;;;37.54;nan;101638.91;5042619;28;20327;-83
2023/05/22 12:19:17;;;;;;;;;;;;;;;37.70;nan;101629.94;5046978;28;19925;-84
2023/05/22 12:21:43;;;;;;;;;;;;;;;37.79;nan;101627.50;5045729;28;19917;-84
2023/05/22 12:24:09;;;;;;;;;;;;;;;37.88;nan;101625.00;5044777;28;19925;-80
2023/05/22 12:26:35;;;;;;;;;;;;;;;37.85;nan;101627.84;5047424;28;20369;-81
2023/05/22 12:29:01;;;;;;;;;;;;;;;37.90;nan;101625.41;5047629;28;20351;-81
2023/05/22 12:31:27;;;;;;;;;;;;;;;37.94;nan;101628.97;5048325;28;20360;-81
2023/05/22 12:33:55;;;;;;;;;;;;;;;38.03;nan;101625.66;5047986;28;20011;-82
2023/05/22 12:36:21;;;;;;;;;;;;;;;38.00;nan;101627.28;5047408;28;19921;-83
2023/05/22 12:38:46;;;;;;;;;;;;;;;38.02;nan;101621.28;5046786;28;19917;-83
2023/05/22 12:41:11;;;;;;;;;;;;;;;38.05;nan;101624.03;5045618;28;20011;-82
2023/05/22 12:43:37;;;;;;;;;;;;;;;38.14;nan;101617.16;5049435;28;20288;-82
2023/05/22 12:46:02;;;;;;;;;;;;;;;38.27;nan;101607.03;5046191;28;20490;-85
2023/05/22 12:48:28;;;;;;;;;;;;;;;38.36;nan;101619.31;5046487;28;20923;-84
2023/05/22 12:50:53;;;;;;;;;;;;;;;38.34;nan;101612.53;5047472;28;19913;-84
2023/05/22 12:53:19;;;;;;;;;;;;;;;38.26;nan;101609.06;5047009;28;19921;-84